Rafsanjan, ایران

07:39 AM IRDT on مه 05, 2015 (GMT +0430)
Kerman | | Change Station
CLOSE
Current Station
Airport
Location: Kerman,
Elevation: 5755 ft
Nearby Weather Stations

Elev 5755 ft 30.25 °N, 56.97 °E | Updated 9 minutes ago

Overcast
نيم ابرى
66 °F
Feels Like 66 °F
N
7
باد متغير باد from SSW

امروز
High -- | Low -- °F
--% Chance of Precip.
دیروز
High -- | Low -- °F
Precip. -- در
5:59 AM 7:25 PM
ماه کامل, 99% visible
فشار 30.06 در
ديد 5.0 مايل، ميل (در برابر كيلومتر
ابری Few 4000 ft
نيم ابرى 20000 ft
قطره شبنم 30 °F
رطوبت 26%
بارش باران 0.00 در
برف عمیق Not available.
مادون قرمز 0 out of 12
Pollen Not available.
تمیزی هوا Not available.
Flu Activity Not available.
METAR OIKK 050300Z 20006KT 8000 FEW040 OVC200 19/M01 Q1018 A3009

More Conditions Fewer Conditions

فشار 30.06 در
ديد 5.0 مايل، ميل (در برابر كيلومتر
ابری Few 4000 ft
نيم ابرى 20000 ft
قطره شبنم 30 °F
رطوبت 26%
بارش باران 0.00 در
برف عمیق Not available.
مادون قرمز 0 out of 12
Pollen Not available.
تمیزی هوا Not available.
Flu Activity Not available.
METAR OIKK 050300Z 20006KT 8000 FEW040 OVC200 19/M01 Q1018 A3009

More Conditions Fewer Conditions

10-Day Weather Forecast

Almanac

ستاره شناسی

May. 05, 2015 Rise Set
وقت حقیقی
تاریک و روشن اجتماعی
تاریک روشن دریایی
شفق و فلق نجومی
ماه
میزان روشنایی روز
طول روز
Tomorrow will be .
, % of the Moon is Illuminated

Today's Extremes

Country Highs Country Lows

Community

WunderPhotos

Upload Photos

1,818,804 photos uploaded!

WunderBlogs® & News

Nearby

تمیزی هوا

  تمیزی هوا AQ Index آلاینده
Not available.

عمق برف

Station Depth Elevation

Earthquake Activity

شهر Distance Mag. Time & Date
Minimum magnitude displayed is 2.5.

Coastal Water Temperatures

منطقه درجه حرارت

Stations

Nearby Weather Stations

Station Location دما باد سرد قطره شبنم رطوبت باد Precip. Elev ارتقا دادن Type